M I D A S
Marine Information and Data Acquisition System
Tripno 2031 of the Zeeleeuw from 2011-01-14 07:38:52 to 2011-01-14 15:06:52
Back to CruiseResearch ActivitiesStationsMapUnderway DataData graphs

EquipmentUnitsComment
TimeDGPSUTC
LatitudeDGPSDM.mWGS84
LongitudeDGPSDM.mWGS84
HeadingGyrodeg 
SOGDGPSknotsSpeed over ground
COGDGPSdegCourse over ground
DepthEcho soundermeters200 kHz
Missing or incorrect values are displayed as -999
Navigation data collected by the RV Zeeleeuw from 2011-01-14 07:43:22 to 2011-01-14 15:16:46
Time Latitude Longitude Heading SOG COG Depth
2011-01-14 07:44:31 51°13.683 2°55.872 104.8 4.5 289 -999
2011-01-14 07:45:30 51°13.698 2°55.782 89.4 2.6 282 14.7
2011-01-14 07:46:29 51°13.703 2°55.761 48.9 0.9 262 14.9
2011-01-14 07:47:30 51°13.705 2°55.742 10.2 1.4 349 14.6
2011-01-14 07:48:29 51°13.749 2°55.711 330.7 4.7 331 13.4
2011-01-14 07:49:28 51°13.845 2°55.619 331.1 8.3 332 12.5
2011-01-14 07:50:30 51°13.995 2°55.515 338.5 9.9 337 -999
2011-01-14 07:51:30 51°14.151 2°55.405 335.4 10.7 335 -999
2011-01-14 07:52:30 51°14.303 2°55.251 324.3 11 325 12.1
2011-01-14 07:53:31 51°14.468 2°55.1 331.8 11.4 332 12.2
2011-01-14 07:54:28 51°14.651 2°54.987 336.6 13 343 13.5
2011-01-14 07:55:27 51°14.863 2°54.909 342.5 13.6 350 11.8
2011-01-14 07:56:27 51°15.081 2°54.819 332.4 13.2 340 11.2
2011-01-14 07:57:27 51°15.273 2°54.663 320.3 12.8 326 11.1
2011-01-14 07:58:27 51°15.437 2°54.453 315.5 12.7 321 11.5
2011-01-14 07:59:27 51°15.598 2°54.237 313.6 12.6 319 12.1
2011-01-14 08:00:27 51°15.759 2°54.022 314.3 12.6 319 12.7
2011-01-14 08:01:27 51°15.918 2°53.805 314 12.6 319 13.1
2011-01-14 08:02:27 51°16.086 2°53.602 317.9 12.8 323 13.7
2011-01-14 08:03:27 51°16.255 2°53.403 317.4 12.6 323 13.2
2011-01-14 08:04:27 51°16.424 2°53.207 319.4 12.7 324 14.4
2011-01-14 08:05:27 51°16.607 2°53.028 321.6 13 329 12.7
2011-01-14 08:06:27 51°16.79 2°52.857 324.6 12.8 331 11.7
2011-01-14 08:07:27 51°16.976 2°52.686 327.3 13.2 331 11.5
2011-01-14 08:08:27 51°17.188 2°52.598 347 13.2 350 12.1
2011-01-14 08:09:27 51°17.41 2°52.554 347.7 13.5 349 12.2
2011-01-14 08:10:27 51°17.633 2°52.532 352.6 13.2 358 12.4
2011-01-14 08:11:27 51°17.855 2°52.495 347.5 13.4 353 12.5
2011-01-14 08:12:27 51°18.079 2°52.465 352.7 13.6 358 12.8
2011-01-14 08:13:27 51°18.302 2°52.435 351.6 13.5 353 12.5
2011-01-14 08:14:27 51°18.526 2°52.404 350.4 13.2 352 13.9
2011-01-14 08:15:27 51°18.749 2°52.374 352.1 13.4 358 14.4
2011-01-14 08:16:27 51°18.973 2°52.345 352.9 13.4 356 15
2011-01-14 08:17:27 51°19.199 2°52.331 356.1 13.6 1 17.1
2011-01-14 08:18:27 51°19.424 2°52.305 352.4 13.6 359 17
2011-01-14 08:19:27 51°19.649 2°52.284 356.5 13.7 1 17.8
2011-01-14 08:20:27 51°19.873 2°52.262 353.1 13.5 358 18
2011-01-14 08:21:27 51°20.096 2°52.237 352.9 13.3 358 18.7
2011-01-14 08:22:27 51°20.32 2°52.219 353.8 13.5 356 16.5
2011-01-14 08:23:27 51°20.543 2°52.197 354.3 13.6 3 17.1
2011-01-14 08:24:27 51°20.764 2°52.185 2.1 13.6 7 16.6
2011-01-14 08:25:27 51°20.989 2°52.207 2.4 13.6 2 16.8
2011-01-14 08:26:27 51°21.214 2°52.228 357.9 13.5 -999 18.3
2011-01-14 08:27:27 51°21.441 2°52.246 0.1 13.7 1 21
2011-01-14 08:28:27 51°21.669 2°52.272 0.8 14 5 24.2
2011-01-14 08:29:27 51°21.899 2°52.298 357.9 13.7 4 25.4
2011-01-14 08:30:27 51°22.127 2°52.31 0.1 13.9 -999 26.1
2011-01-14 08:31:27 51°22.356 2°52.334 358.5 13.8 358 25.1
2011-01-14 08:32:27 51°22.585 2°52.349 359.8 13.9 359 25.1
2011-01-14 08:33:27 51°22.811 2°52.356 357.7 13.7 357 25.6
2011-01-14 08:34:27 51°23.038 2°52.355 357.9 13.5 358 25.4
2011-01-14 08:35:27 51°23.265 2°52.358 359 13.7 357 23.2
2011-01-14 08:36:27 51°23.493 2°52.384 2.4 13.7 3 21.8
2011-01-14 08:37:27 51°23.722 2°52.407 358.3 13.5 3 18.1
2011-01-14 08:38:27 51°23.949 2°52.411 354.9 13.6 357 20.2
2011-01-14 08:39:27 51°24.174 2°52.401 0.7 13.7 354 21.3
2011-01-14 08:40:27 51°24.398 2°52.417 3.2 13.8 6 19.6
2011-01-14 08:41:27 51°24.623 2°52.431 353.1 13.2 355 21.8
2011-01-14 08:42:27 51°24.851 2°52.447 3.3 13.6 7 25.4
2011-01-14 08:43:27 51°25.078 2°52.47 0.2 13.5 4 26
2011-01-14 08:44:27 51°25.306 2°52.497 2.3 14 9 26.1
2011-01-14 08:45:27 51°25.533 2°52.501 1 14 6 27.2
2011-01-14 08:46:27 51°25.759 2°52.516 0.8 13.6 5 28.7
2011-01-14 08:47:27 51°25.986 2°52.522 358 13.8 3 29.8
2011-01-14 08:48:27 51°26.213 2°52.523 356.9 13.6 355 28.9
2011-01-14 08:49:27 51°26.437 2°52.516 353.5 13.6 2 30.9
2011-01-14 08:50:27 51°26.662 2°52.5 356.4 13.6 3 29.8
2011-01-14 08:51:27 51°26.887 2°52.502 356 13.5 1 29.4
2011-01-14 08:52:27 51°27.115 2°52.518 3.3 13.9 8 24.4
2011-01-14 08:53:27 51°27.342 2°52.586 14.5 14 9 22.6
2011-01-14 08:54:27 51°27.566 2°52.662 1.7 13.4 13 22.7
2011-01-14 08:55:27 51°27.795 2°52.705 3.4 13.6 7 21.9
2011-01-14 08:56:27 51°28.023 2°52.74 2.3 13.3 8 21.8
2011-01-14 08:57:27 51°28.25 2°52.755 1.2 13.8 2 25
2011-01-14 08:58:27 51°28.475 2°52.773 2 14.1 3 27.3
2011-01-14 08:59:27 51°28.697 2°52.783 4.2 13.4 11 27.3
2011-01-14 09:00:27 51°28.921 2°52.784 349.4 13.5 353 27.8
2011-01-14 09:01:27 51°29.143 2°52.721 341.7 13.4 346 30.5
2011-01-14 09:02:27 51°29.359 2°52.648 342.5 13.3 347 31.9
2011-01-14 09:03:27 51°29.581 2°52.59 345.4 13.4 354 33.7
2011-01-14 09:04:27 51°29.802 2°52.521 338.6 13.3 348 32.2
2011-01-14 09:05:27 51°30.019 2°52.449 339.9 13.4 347 31
2011-01-14 09:06:27 51°30.238 2°52.373 341.9 13.3 342 30.9
2011-01-14 09:07:27 51°30.459 2°52.307 344.7 13.2 346 27.9
2011-01-14 09:08:27 51°30.673 2°52.218 335.4 12.5 340 18.9
2011-01-14 09:09:27 51°30.834 2°52.155 339.3 7.9 351 19.6
2011-01-14 09:10:27 51°30.942 2°52.127 339 6.1 355 22.6
2011-01-14 09:11:27 51°31.022 2°52.114 330.8 3.8 353 22.6
2011-01-14 09:12:27 51°31.068 2°52.12 319.9 1.9 18 23.4
2011-01-14 09:13:27 51°31.099 2°52.145 311.9 2.4 32 22.6
2011-01-14 09:14:27 51°31.127 2°52.176 312.5 2.2 35 23.4
2011-01-14 09:15:27 51°31.153 2°52.21 316.9 1.7 38 23.6
2011-01-14 09:16:27 51°31.176 2°52.249 328 2.1 46 22
2011-01-14 09:17:27 51°31.2 2°52.287 334.4 1.9 45 22
2011-01-14 09:18:27 51°31.224 2°52.324 327 1.9 41 24
2011-01-14 09:19:27 51°31.248 2°52.359 323.9 2.1 42 23.6
2011-01-14 09:20:27 51°31.272 2°52.395 327 2 42 22.3
2011-01-14 09:21:27 51°31.294 2°52.433 325.4 1.7 48 23.5
2011-01-14 09:22:27 51°31.317 2°52.469 322.1 2 42 24.1
2011-01-14 09:23:27 51°31.341 2°52.505 321.3 2.1 43 23.8
2011-01-14 09:24:27 51°31.364 2°52.542 319.8 2.1 49 24.3
2011-01-14 09:25:27 51°31.386 2°52.579 328.2 2.2 51 21.6
2011-01-14 09:26:27 51°31.409 2°52.615 330.7 2 44 23.4
2011-01-14 09:27:27 51°31.433 2°52.651 333.7 1.8 38 23.5
2011-01-14 09:28:27 51°31.459 2°52.683 331.4 1.8 34 23.2
2011-01-14 09:29:27 51°31.484 2°52.715 323.2 1.8 36 21.9
2011-01-14 09:30:27 51°31.511 2°52.748 318 2.1 37 21.2
2011-01-14 09:31:27 51°31.537 2°52.782 318.6 1.9 38 23
2011-01-14 09:32:27 51°31.562 2°52.818 321.7 2 42 24
2011-01-14 09:33:27 51°31.586 2°52.855 330.4 2.7 50 24.4
2011-01-14 09:34:27 51°31.611 2°52.887 328.8 1.7 33 23.6
2011-01-14 09:35:27 51°31.638 2°52.919 327 1.7 33 22.8
2011-01-14 09:36:27 51°31.665 2°52.949 323.7 2 35 21.8
2011-01-14 09:37:27 51°31.693 2°52.976 316.9 2.2 36 22.7
2011-01-14 09:38:27 51°31.718 2°53.005 312.6 1.4 40 23.8
2011-01-14 09:39:27 51°31.742 2°53.038 314.6 2.2 44 21.9
2011-01-14 09:40:27 51°31.767 2°53.076 320.2 1.7 45 23.5
2011-01-14 09:41:27 51°31.79 2°53.112 328.1 1.8 41 23.6
2011-01-14 09:42:27 51°31.813 2°53.148 333.1 1.8 40 19.5
2011-01-14 09:43:27 51°31.838 2°53.183 332.3 1.7 33 24.2
2011-01-14 09:44:27 51°31.864 2°53.213 326.8 2.2 36 24.4
2011-01-14 09:45:27 51°31.892 2°53.241 324.7 2 33 23
2011-01-14 09:46:27 51°31.919 2°53.267 323.8 1.6 26 24.5
2011-01-14 09:47:27 51°31.946 2°53.294 323.8 2.1 32 22.5
2011-01-14 09:48:27 51°31.974 2°53.322 323.2 2.1 32 21.1
2011-01-14 09:49:27 51°32 2°53.351 319.4 1.7 33 23.6
2011-01-14 09:50:27 51°32.025 2°53.383 322.3 2 38 24.5
2011-01-14 09:51:27 51°32.049 2°53.414 322.1 1.8 36 24.4
2011-01-14 09:52:27 51°32.074 2°53.446 320.9 1.9 37 25.2
2011-01-14 09:53:27 51°32.098 2°53.477 325.2 1.8 34 23.2
2011-01-14 09:54:27 51°32.133 2°53.49 305.8 2.7 351 23.5
2011-01-14 09:55:27 51°32.166 2°53.454 264.4 2.1 307 24.1
2011-01-14 09:56:27 51°32.165 2°53.41 220.8 2 234 22.4
2011-01-14 09:57:27 51°32.123 2°53.327 223.4 5.9 231 25.3
2011-01-14 09:58:27 51°32.05 2°53.175 225.8 7.7 232 23.6
2011-01-14 09:59:27 51°31.974 2°53.012 225.1 7.5 234 24.6
2011-01-14 10:00:27 51°31.89 2°52.841 225.5 7.6 232 23.1
2011-01-14 10:01:27 51°31.83 2°52.712 228.7 3.6 238 24.8
2011-01-14 10:02:27 51°31.805 2°52.647 224 2.3 235 23.4
2011-01-14 10:03:27 51°31.78 2°52.585 224.5 3.4 236 24.7
2011-01-14 10:04:27 51°31.742 2°52.492 231.9 4.9 241 26.2
2011-01-14 10:05:27 51°31.708 2°52.362 241.6 5.2 253 25
2011-01-14 10:06:27 51°31.706 2°52.269 254.8 2.5 292 23.8
2011-01-14 10:07:27 51°31.718 2°52.212 250.9 2.9 278 24.9
2011-01-14 10:08:27 51°31.726 2°52.134 259.8 2.2 293 25.3
2011-01-14 10:09:27 51°31.749 2°52.114 273.1 1.7 15 25.2
2011-01-14 10:10:27 51°31.78 2°52.119 297.1 1.9 11 25.7
2011-01-14 10:11:27 51°31.807 2°52.138 314.2 2 28 23
2011-01-14 10:12:27 51°31.832 2°52.165 321.6 2.2 39 26.3
2011-01-14 10:13:27 51°31.855 2°52.191 324.7 1.7 30 25
2011-01-14 10:14:27 51°31.891 2°52.189 299 2.5 338 26.5
2011-01-14 10:15:27 51°31.908 2°52.124 242 2.7 264 26.3
2011-01-14 10:16:27 51°31.879 2°52.063 210 3.2 211 27.6
2011-01-14 10:17:27 51°31.833 2°52.041 196.7 1.8 185 26.2
2011-01-14 10:18:27 51°31.819 2°52.042 218.1 0.2 191 27.3
2011-01-14 10:19:27 51°31.82 2°52.039 224.4 1.3 229 26.7
2011-01-14 10:20:27 51°31.803 2°52.015 200.7 0.4 163 26.7
2011-01-14 10:21:27 51°31.805 2°52.035 179.7 1.1 67 26.3
2011-01-14 10:22:27 51°31.801 2°52.062 183.7 0.9 95 25.8
2011-01-14 10:23:27 51°31.795 2°52.081 193.9 0.6 104 25.2
2011-01-14 10:24:27 51°31.802 2°52.107 183.8 1.7 55 26.7
2011-01-14 10:25:27 51°31.823 2°52.137 156.7 1.6 36 23.3
2011-01-14 10:26:27 51°31.845 2°52.164 135.2 1.7 39 26.3
2011-01-14 10:27:27 51°31.866 2°52.195 127.9 1.9 63 23.5
2011-01-14 10:28:27 51°31.853 2°52.241 165.3 2.1 152 24.1
2011-01-14 10:29:27 51°31.823 2°52.233 222.6 2.2 232 27
2011-01-14 10:30:27 51°31.802 2°52.178 217.6 2.6 221 22.1
2011-01-14 10:31:27 51°31.779 2°52.145 237.8 2 261 25.2
2011-01-14 10:32:27 51°31.8 2°52.099 292.6 1.9 338 25.4
2011-01-14 10:33:27 51°31.824 2°52.113 316 1.4 56 23
2011-01-14 10:34:30 51°31.827 2°52.149 348.7 1 73 25.5
2011-01-14 10:35:30 51°31.838 2°52.177 351 1.3 40 27.1
2011-01-14 10:36:28 51°31.857 2°52.203 340.7 1.4 33 23.2
2011-01-14 10:37:27 51°31.877 2°52.229 327.1 1.6 33 26
2011-01-14 10:38:27 51°31.897 2°52.254 319.9 1.8 42 26.9
2011-01-14 10:39:27 51°31.917 2°52.281 320.3 1.8 38 25.3
2011-01-14 10:40:27 51°31.955 2°52.276 313.2 4 332 26
2011-01-14 10:41:27 51°32.051 2°52.156 314.5 9.4 321 28.3
2011-01-14 10:42:27 51°32.196 2°52 323.9 10.8 329 27.8
2011-01-14 10:43:27 51°32.359 2°51.871 333.2 11 334 29.9
2011-01-14 10:44:27 51°32.529 2°51.768 333.6 10.9 338 31.1
2011-01-14 10:45:27 51°32.702 2°51.669 335.8 11.1 334 30
2011-01-14 10:46:27 51°32.872 2°51.566 333.9 10.6 336 33.1
2011-01-14 10:47:27 51°33.003 2°51.489 339.8 6.8 347 31.8
2011-01-14 10:48:27 51°33.088 2°51.495 354.3 3.5 19 34.2
2011-01-14 10:49:27 51°33.104 2°51.516 341.8 1 71 33.3
2011-01-14 10:50:30 51°33.113 2°51.543 355.8 1.1 61 32.7
2011-01-14 10:51:28 51°33.124 2°51.57 357 1.3 65 33.7
2011-01-14 10:52:27 51°33.13 2°51.597 4.4 1.3 74 34.1
2011-01-14 10:53:27 51°33.142 2°51.622 1.4 0.6 55 34
2011-01-14 10:54:27 51°33.15 2°51.647 1.6 1.1 31 35.4
2011-01-14 10:55:27 51°33.168 2°51.671 346.9 1.4 37 32.8
2011-01-14 10:56:27 51°33.188 2°51.69 328.1 1.2 33 34.8
2011-01-14 10:57:27 51°33.208 2°51.709 319.5 2 16 34.4
2011-01-14 10:58:27 51°33.238 2°51.681 277.9 2.3 311 33.8
2011-01-14 10:59:27 51°33.252 2°51.639 239.7 1.4 282 34.8
2011-01-14 11:00:27 51°33.22 2°51.611 195.6 3.5 194 34.4
2011-01-14 11:01:27 51°33.152 2°51.574 198 4.3 193 35.5
2011-01-14 11:02:27 51°33.113 2°51.577 186.5 1.1 91 32.4
2011-01-14 11:03:27 51°33.124 2°51.607 159.8 1.4 100 34.1
2011-01-14 11:04:27 51°33.135 2°51.637 144.1 1.5 41 34.1
2011-01-14 11:05:27 51°33.153 2°51.659 121.1 1.4 37 35.1
2011-01-14 11:06:27 51°33.173 2°51.683 113.6 1.6 34 34.1
2011-01-14 11:07:27 51°33.191 2°51.707 116.9 1.5 40 34.8
2011-01-14 11:08:27 51°33.204 2°51.737 131.8 1.4 81 34.4
2011-01-14 11:09:27 51°33.19 2°51.774 170.5 1.6 155 33.3
2011-01-14 11:10:27 51°33.159 2°51.778 210.5 1.7 206 34.8
2011-01-14 11:11:27 51°33.135 2°51.74 225.5 2.2 231 34.3
2011-01-14 11:12:27 51°33.109 2°51.694 219.1 2.1 222 32.4
2011-01-14 11:13:27 51°33.105 2°51.657 270.1 1.4 327 31.8
2011-01-14 11:14:27 51°33.13 2°51.651 293.5 1.4 346 33.4
2011-01-14 11:15:27 51°33.156 2°51.653 297.9 1.7 19 35.7
2011-01-14 11:16:27 51°33.177 2°51.672 311.9 1.6 35 33.9
2011-01-14 11:17:27 51°33.195 2°51.694 320.2 1 30 34.6
2011-01-14 11:18:27 51°33.213 2°51.718 325.7 1.8 48 35.2
2011-01-14 11:19:27 51°33.227 2°51.744 327.1 1.4 53 33.6
2011-01-14 11:20:27 51°33.246 2°51.768 334.3 2 17 35.1
2011-01-14 11:21:27 51°33.28 2°51.742 290.2 2.7 312 35
2011-01-14 11:22:27 51°33.299 2°51.687 249.1 2 273 33.6
2011-01-14 11:23:27 51°33.285 2°51.671 182.5 1 123 33.7
2011-01-14 11:24:27 51°33.273 2°51.698 177.2 1.6 139 33.1
2011-01-14 11:25:27 51°33.25 2°51.712 189.4 1.9 155 32.3
2011-01-14 11:26:27 51°33.217 2°51.711 202.5 2.8 200 33.9
2011-01-14 11:27:27 51°33.177 2°51.672 211.7 2 214 34.3
2011-01-14 11:28:27 51°33.164 2°51.674 192.4 0.6 116 32.1
2011-01-14 11:29:27 51°33.161 2°51.693 188.2 0.5 127 33
2011-01-14 11:30:27 51°33.148 2°51.696 217.2 1.1 219 32.8
2011-01-14 11:31:27 51°33.142 2°51.662 244 2.3 262 32.7
2011-01-14 11:32:27 51°33.146 2°51.63 238.7 1 297 34.4
2011-01-14 11:33:27 51°33.145 2°51.625 193 0.2 120 34.3
2011-01-14 11:34:27 51°33.127 2°51.652 178.6 2 145 32.7
2011-01-14 11:35:27 51°33.111 2°51.675 183.6 1.5 149 32.1
2011-01-14 11:36:27 51°33.089 2°51.674 217.6 1.1 210 31.2
2011-01-14 11:37:27 51°33.093 2°51.666 261.9 1.1 -999 30.6
2011-01-14 11:38:27 51°33.116 2°51.659 292.6 1.5 353 32.6
2011-01-14 11:39:27 51°33.142 2°51.657 305.1 1.5 9 30.6
2011-01-14 11:40:27 51°33.165 2°51.666 307.8 1.2 13 32.4
2011-01-14 11:41:27 51°33.185 2°51.682 315.2 1.4 29 33.5
2011-01-14 11:42:27 51°33.203 2°51.702 323.1 1 29 35.1
2011-01-14 11:43:27 51°33.229 2°51.716 331.9 2.7 3 32.9
2011-01-14 11:44:27 51°33.289 2°51.69 332 4.6 341 33.8
2011-01-14 11:45:27 51°33.381 2°51.688 9.6 6.4 10 33.8
2011-01-14 11:46:27 51°33.488 2°51.744 16.7 7.2 28 33.9
2011-01-14 11:47:27 51°33.592 2°51.829 30.5 7.2 26 32.7
2011-01-14 11:48:27 51°33.705 2°51.949 34.1 8.8 29 35.2
2011-01-14 11:49:27 51°33.831 2°52.079 31.4 9.1 37 34
2011-01-14 11:50:27 51°33.96 2°52.213 34 9.4 35 31
2011-01-14 11:51:27 51°34.075 2°52.329 25.9 6 25 36.1
2011-01-14 11:52:27 51°34.143 2°52.367 8.8 3.7 16 35.4
2011-01-14 11:53:27 51°34.195 2°52.419 56.2 3.5 55 33.3
2011-01-14 11:54:27 51°34.212 2°52.483 92.6 2 74 37.6
2011-01-14 11:55:27 51°34.218 2°52.52 118.2 1.2 87 32.2
2011-01-14 11:56:27 51°34.225 2°52.549 126.7 1 77 34.2
2011-01-14 11:57:27 51°34.233 2°52.575 133.3 1.1 61 32.3
2011-01-14 11:58:27 51°34.243 2°52.598 135.7 1 56 34.7
2011-01-14 11:59:26 51°34.246 2°52.633 136.5 2.2 119 34.5
2011-01-14 12:00:27 51°34.178 2°52.677 180.2 6.3 184 35.3
2011-01-14 12:01:27 51°34.063 2°52.567 210.5 10.2 214 -999
2011-01-14 12:02:27 51°33.975 2°52.319 259.2 11.5 269 35.2
2011-01-14 12:03:27 51°33.99 2°52.007 273.1 12.2 278 35.5
2011-01-14 12:04:27 51°34.019 2°51.686 274.4 12.3 279 -999
2011-01-14 12:05:27 51°34.043 2°51.363 267 11.8 271 38.3
2011-01-14 12:06:26 51°33.985 2°51.067 239 12.2 241 39.2
2011-01-14 12:07:27 51°33.857 2°50.821 217 11.4 217 35.4
2011-01-14 12:08:27 51°33.698 2°50.622 214.2 12.1 218 31.2
2011-01-14 12:09:27 51°33.542 2°50.422 217.3 12 221 34.6
2011-01-14 12:10:26 51°33.393 2°50.223 217.6 12.2 221 35.8
2011-01-14 12:11:27 51°33.235 2°50.039 201.9 11.7 202 34.9
2011-01-14 12:12:26 51°33.05 2°49.94 194.6 12.1 196 34.9
2011-01-14 12:13:27 51°32.861 2°49.838 194.8 11.7 197 33
2011-01-14 12:14:27 51°32.675 2°49.736 197 11.1 194 -999
2011-01-14 12:15:27 51°32.494 2°49.627 198.8 11.6 201 31.5
2011-01-14 12:16:27 51°32.312 2°49.515 198.6 11.8 201 32.9
2011-01-14 12:17:27 51°32.126 2°49.4 199.9 11.9 199 33.4
2011-01-14 12:18:27 51°31.942 2°49.29 199.3 12 201 29.9
2011-01-14 12:19:27 51°31.757 2°49.181 198.5 12.1 199 31.2
2011-01-14 12:20:27 51°31.573 2°49.073 199.8 11.9 199 28.7
2011-01-14 12:21:27 51°31.389 2°48.963 199.7 11.7 201 28
2011-01-14 12:22:27 51°31.201 2°48.847 199.1 12.2 199 29.7
2011-01-14 12:23:27 51°31.016 2°48.739 199.8 11.7 200 27.8
2011-01-14 12:24:28 51°30.832 2°48.631 199.2 11.7 200 28.3
2011-01-14 12:25:27 51°30.648 2°48.516 200.4 12.2 203 25.6
2011-01-14 12:26:26 51°30.463 2°48.401 197.6 11.6 199 -999
2011-01-14 12:27:27 51°30.277 2°48.293 199.3 11.9 201 23
2011-01-14 12:28:27 51°30.089 2°48.177 197.2 12 199 20.9
2011-01-14 12:29:27 51°29.901 2°48.057 200 12 202 25.1
2011-01-14 12:30:27 51°29.711 2°47.942 198.3 12.2 202 24.8
2011-01-14 12:31:26 51°29.525 2°47.826 198.9 12.2 199 24.3
2011-01-14 12:32:27 51°29.333 2°47.707 199.1 12.4 202 25.6
2011-01-14 12:33:27 51°29.142 2°47.586 199.4 12 203 23.7
2011-01-14 12:34:27 51°28.952 2°47.479 194.7 11.8 194 25.2
2011-01-14 12:35:27 51°28.763 2°47.365 200.3 12.5 202 27.3
2011-01-14 12:36:27 51°28.572 2°47.24 200.2 12.4 202 28
2011-01-14 12:37:27 51°28.382 2°47.119 199 12.1 201 28.7
2011-01-14 12:38:27 51°28.192 2°46.998 200.5 12.1 200 29.3
2011-01-14 12:39:26 51°28.005 2°46.88 199 12.4 201 31.2
2011-01-14 12:40:27 51°27.814 2°46.748 204.7 12.6 209 31.7
2011-01-14 12:41:27 51°27.639 2°46.567 212.2 12.6 214 29.7
2011-01-14 12:42:27 51°27.467 2°46.378 210.6 12.4 215 30.3
2011-01-14 12:43:27 51°27.293 2°46.192 211.2 12.6 214 30.1
2011-01-14 12:44:27 51°27.117 2°46.01 209.8 12.6 212 30.3
2011-01-14 12:45:27 51°26.942 2°45.824 210.9 12.6 213 31.8
2011-01-14 12:46:27 51°26.768 2°45.644 210.6 12.5 213 28.8
2011-01-14 12:47:27 51°26.591 2°45.46 210.2 12.2 210 -999
2011-01-14 12:48:27 51°26.414 2°45.278 210.5 12.6 212 28
2011-01-14 12:49:27 51°26.238 2°45.097 210.6 12.6 213 26.7
2011-01-14 12:50:27 51°26.063 2°44.918 210.6 12.7 213 26.5
2011-01-14 12:51:26 51°25.888 2°44.738 209.8 12.6 213 24.2
2011-01-14 12:52:27 51°25.71 2°44.553 210.6 12.6 214 24.9
2011-01-14 12:53:27 51°25.533 2°44.373 210.6 12.3 212 23.5
2011-01-14 12:54:27 51°25.357 2°44.192 210.4 12.7 214 22.1
2011-01-14 12:55:26 51°25.182 2°44.013 210.8 12.7 212 22.9
2011-01-14 12:56:26 51°24.998 2°43.91 186.3 9 187 20
2011-01-14 12:57:26 51°24.896 2°43.879 195.9 4.7 198 20.1
2011-01-14 12:58:27 51°24.831 2°43.845 200.1 3.5 198 23.9
2011-01-14 12:59:26 51°24.778 2°43.817 201.4 3.1 199 23.5
2011-01-14 13:00:26 51°24.743 2°43.802 201.4 1.2 184 25.3
2011-01-14 13:01:27 51°24.714 2°43.79 209.5 2.6 207 24.1
2011-01-14 13:02:27 51°24.696 2°43.749 248.5 0.9 261 22.9
2011-01-14 13:03:27 51°24.697 2°43.724 237.5 0.9 260 23.3
2011-01-14 13:04:26 51°24.684 2°43.713 186.3 0.9 184 24.1
2011-01-14 13:05:27 51°24.671 2°43.727 170 0.4 103 22.7
2011-01-14 13:06:27 51°24.678 2°43.74 147.6 0.6 44 22.6
2011-01-14 13:07:27 51°24.686 2°43.751 129.6 0.6 51 22.3
2011-01-14 13:08:26 51°24.693 2°43.764 124.4 1 35 21.5
2011-01-14 13:09:27 51°24.704 2°43.768 123.4 1.5 352 21
2011-01-14 13:10:27 51°24.72 2°43.742 104.6 1.5 305 21.6
2011-01-14 13:11:27 51°24.732 2°43.704 89 1.9 284 5.1
2011-01-14 13:12:28 51°24.737 2°43.662 74.7 0.3 354 24
2011-01-14 13:13:27 51°24.731 2°43.71 126.3 3.1 119 23.8
2011-01-14 13:14:27 51°24.683 2°43.742 182.7 3.4 188 22.5
2011-01-14 13:15:27 51°24.645 2°43.681 253.7 3.3 266 22.3
2011-01-14 13:16:27 51°24.659 2°43.64 311.8 0.9 356 23.9
2011-01-14 13:17:30 51°24.662 2°43.647 333.5 0.8 4 -999
2011-01-14 13:18:29 51°24.666 2°43.657 335.8 0.4 113 22.1
2011-01-14 13:19:27 51°24.666 2°43.671 341.4 0.3 99 19.6
2011-01-14 13:20:26 51°24.667 2°43.683 342.5 0.5 75 21.5
2011-01-14 13:21:26 51°24.671 2°43.695 341.9 0.6 61 23.2
2011-01-14 13:22:27 51°24.676 2°43.706 334.8 0.3 33 23.6
2011-01-14 13:23:26 51°24.682 2°43.716 332.4 0.6 38 23.6
2011-01-14 13:24:26 51°24.689 2°43.725 327 0.6 44 23.8
2011-01-14 13:25:26 51°24.695 2°43.734 327.4 0.3 42 22.9
2011-01-14 13:26:26 51°24.697 2°43.749 331 1.2 113 23.2
2011-01-14 13:27:30 51°24.679 2°43.77 359.6 1.6 164 -999
2011-01-14 13:28:29 51°24.656 2°43.773 16.9 1.4 184 -999
2011-01-14 13:29:28 51°24.652 2°43.779 15.2 1.8 15 5.1
2011-01-14 13:30:27 51°24.698 2°43.749 308.8 3.5 309 22.5
2011-01-14 13:31:27 51°24.71 2°43.669 253.4 2.6 266 23.3
2011-01-14 13:32:27 51°24.7 2°43.619 225.5 1.3 231 22.5
2011-01-14 13:33:26 51°24.689 2°43.608 192 0.4 163 23.1
2011-01-14 13:34:27 51°24.692 2°43.618 158.1 0.7 67 23.5
2011-01-14 13:35:27 51°24.683 2°43.641 144.8 1 117 22.6
2011-01-14 13:36:27 51°24.679 2°43.659 143 0.7 83 20.6
2011-01-14 13:37:27 51°24.67 2°43.681 148.6 0.9 127 20.9
2011-01-14 13:38:27 51°24.668 2°43.694 142.3 0.4 80 22.1
2011-01-14 13:39:26 51°24.668 2°43.71 142.7 0.5 108 23
2011-01-14 13:40:27 51°24.668 2°43.723 137.6 0.5 82 23.9
2011-01-14 13:41:27 51°24.671 2°43.734 136 0.5 59 24
2011-01-14 13:42:27 51°24.674 2°43.745 135.8 0.4 76 23.5
2011-01-14 13:43:27 51°24.676 2°43.757 133.9 0.5 74 22.1
2011-01-14 13:44:26 51°24.678 2°43.769 136.1 0.3 72 22
2011-01-14 13:45:27 51°24.678 2°43.784 139.3 1.2 114 21.8
2011-01-14 13:46:26 51°24.675 2°43.869 60.3 4.7 55 24.8
2011-01-14 13:47:26 51°24.746 2°43.859 314.4 5 311 22.5
2011-01-14 13:48:27 51°24.752 2°43.755 244 3.3 246 23.1
2011-01-14 13:49:26 51°24.717 2°43.717 194.7 2.4 193 23.1
2011-01-14 13:50:27 51°24.675 2°43.709 197 1.8 178 23.9
2011-01-14 13:51:27 51°24.676 2°43.721 179.3 0.8 55 -999
2011-01-14 13:52:27 51°24.685 2°43.731 149.1 0.4 8 22.9
2011-01-14 13:53:27 51°24.691 2°43.739 135.2 0.3 40 22.7
2011-01-14 13:54:27 51°24.697 2°43.748 127 0.6 83 22.7
2011-01-14 13:55:26 51°24.7 2°43.76 129.2 0.3 76 21.7
2011-01-14 13:56:27 51°24.702 2°43.774 136.1 0.7 69 21.2
2011-01-14 13:57:26 51°24.702 2°43.787 137.5 0.5 95 23.3
2011-01-14 13:58:26 51°24.703 2°43.802 139.6 0.7 85 24.3
2011-01-14 13:59:27 51°24.705 2°43.818 138.3 0.5 78 25.5
2011-01-14 14:00:26 51°24.707 2°43.833 133.7 0.7 76 24.9
2011-01-14 14:01:26 51°24.708 2°43.85 134.4 0.6 82 24.6
2011-01-14 14:02:26 51°24.71 2°43.865 134.3 0.7 96 23.7
2011-01-14 14:03:26 51°24.689 2°43.906 138.6 3.6 136 23.6
2011-01-14 14:04:27 51°24.621 2°44.015 123 7.4 126 24.3
2011-01-14 14:05:27 51°24.581 2°44.225 99.1 8.8 104 23.1
2011-01-14 14:06:27 51°24.551 2°44.457 98.7 8.8 98 27.6
2011-01-14 14:07:27 51°24.515 2°44.66 110.1 7.5 117 27.8
2011-01-14 14:08:27 51°24.461 2°44.814 119.3 5.9 118 27.2
2011-01-14 14:09:27 51°24.414 2°44.941 115.5 5.3 120 26.5
2011-01-14 14:10:27 51°24.372 2°45.07 114.5 6.2 118 26.1
2011-01-14 14:11:27 51°24.313 2°45.258 111.6 9.4 120 25.9
2011-01-14 14:12:27 51°24.23 2°45.518 114.7 12.6 121 26.8
2011-01-14 14:13:27 51°24.093 2°45.772 133.3 13 143 26.9
2011-01-14 14:14:27 51°23.917 2°45.964 142.2 12.8 148 27.3
2011-01-14 14:15:27 51°23.739 2°46.152 142.9 12.9 147 29.4
2011-01-14 14:16:27 51°23.556 2°46.334 143.2 12.9 149 27.2
2011-01-14 14:17:26 51°23.386 2°46.529 138.9 12.7 148 24.8
2011-01-14 14:18:26 51°23.205 2°46.714 149.1 13 146 24.1
2011-01-14 14:19:26 51°23.021 2°46.889 145.7 12.8 148 22.4
2011-01-14 14:20:26 51°22.83 2°47.048 149.6 12.9 150 21
2011-01-14 14:21:26 51°22.637 2°47.205 149 13.2 154 18
2011-01-14 14:22:26 51°22.439 2°47.35 154.2 13.1 158 13.8
2011-01-14 14:23:26 51°22.224 2°47.397 178.6 13.2 183 21.7
2011-01-14 14:24:27 51°22.003 2°47.375 180.1 13.2 185 24.3
2011-01-14 14:25:26 51°21.791 2°47.376 172.9 13.1 177 24.2
2011-01-14 14:26:26 51°21.575 2°47.418 168.2 12.9 171 24
2011-01-14 14:27:26 51°21.369 2°47.515 156.5 12.9 162 22.5
2011-01-14 14:28:26 51°21.18 2°47.674 143.7 12.8 152 21
2011-01-14 14:29:26 51°21.004 2°47.867 142.5 13.1 145 20.1
2011-01-14 14:30:26 51°20.825 2°48.055 144.8 12.8 149 20.1
2011-01-14 14:31:26 51°20.643 2°48.241 146 13.1 151 20.8
2011-01-14 14:32:26 51°20.46 2°48.421 145.1 13 154 22.3
2011-01-14 14:33:26 51°20.276 2°48.606 143 13.1 149 22.9
2011-01-14 14:34:26 51°20.089 2°48.779 143.9 12.9 150 22.9
2011-01-14 14:35:26 51°19.902 2°48.951 145.2 13 147 20.5
2011-01-14 14:36:26 51°19.721 2°49.132 143.7 12.7 145 18.2
2011-01-14 14:37:26 51°19.539 2°49.314 143.4 12.9 146 15.2
2011-01-14 14:38:26 51°19.356 2°49.491 143.1 12.8 155 13.9
2011-01-14 14:39:26 51°19.171 2°49.668 144.2 13.1 149 12.7
2011-01-14 14:40:26 51°18.993 2°49.857 139.5 13.1 143 11
2011-01-14 14:41:26 51°18.812 2°50.044 147.5 12.7 144 13.1
2011-01-14 14:42:26 51°18.635 2°50.238 140.1 12.9 139 14.5
2011-01-14 14:43:26 51°18.468 2°50.454 137.1 13.1 136 14.4
2011-01-14 14:44:26 51°18.319 2°50.7 125.1 13.4 129 14
2011-01-14 14:45:26 51°18.179 2°50.959 127.8 13 132 13
2011-01-14 14:46:26 51°18.027 2°51.205 129.4 12.7 132 11.8
2011-01-14 14:47:26 51°17.885 2°51.458 130.7 12.7 132 10.7
2011-01-14 14:48:26 51°17.733 2°51.705 129.7 12.9 137 10.4
2011-01-14 14:49:26 51°17.577 2°51.942 137 13 140 10.5
2011-01-14 14:50:26 51°17.394 2°52.133 144.5 13.2 149 11.4
2011-01-14 14:51:27 51°17.202 2°52.31 148.6 12.8 149 10.3
2011-01-14 14:52:26 51°17.019 2°52.487 145.9 13 150 9.9
2011-01-14 14:53:26 51°16.826 2°52.643 151 13.5 155 9.8
2011-01-14 14:54:27 51°16.627 2°52.798 150.3 13.2 151 11.8
2011-01-14 14:55:26 51°16.437 2°52.957 150.4 13.1 151 12.1
2011-01-14 14:56:26 51°16.246 2°53.117 148.3 12.9 151 12.2
2011-01-14 14:57:26 51°16.054 2°53.273 149.8 13 157 11.9
2011-01-14 14:58:26 51°15.863 2°53.432 150.2 12.9 153 12.3
2011-01-14 14:59:26 51°15.684 2°53.623 141.1 13 144 12.2
2011-01-14 15:00:26 51°15.524 2°53.853 136.2 12.9 138 12.2
2011-01-14 15:01:26 51°15.357 2°54.07 141.7 13 148 11.3
2011-01-14 15:02:26 51°15.178 2°54.265 141.8 13 150 11.6
2011-01-14 15:03:26 51°15.009 2°54.468 144.3 12.7 143 11.1
2011-01-14 15:04:26 51°14.836 2°54.669 141.1 12.9 147 11.3
2011-01-14 15:05:26 51°14.666 2°54.869 143.3 12.4 148 11.6
2011-01-14 15:06:26 51°14.49 2°55.046 147.1 12.3 147 10.8
2011-01-14 15:07:26 51°14.329 2°55.219 143.8 9.9 147 10.3
2011-01-14 15:08:26 51°14.212 2°55.334 149.7 6.9 153 10.3
2011-01-14 15:09:26 51°14.106 2°55.424 151.1 7.9 155 10.4
2011-01-14 15:10:26 51°13.987 2°55.519 152.5 7.9 153 10.5
2011-01-14 15:11:27 51°13.876 2°55.604 151.7 6.9 153 10.4
2011-01-14 15:12:27 51°13.781 2°55.686 147.4 5.8 147 10.5
2011-01-14 15:13:27 51°13.73 2°55.775 123.5 3.9 125 -999
2011-01-14 15:14:27 51°13.694 2°55.856 125.9 3.9 127 8.3
2011-01-14 15:15:26 51°13.666 2°55.939 111 2.9 110 7.6
2011-01-14 15:16:26 51°13.662 2°55.957 121 0.2 138 7.6